LiveATC.Net - Listen to live air traffic control over the Internet!

Airport/ARTCC Code
Frequency Search
(e.g., 124.400, 128.75)
Site-wide search
 


Browse Feeds
Top 50 Feeds
Coverage Map
Bad Weather Areas

LiveATC FAQ
Offer LiveATC feed
Contact LiveATC.net
Press Inquiries

LiveATC on iPhone
LiveATC on Android

Windows Phone
Windows 8/10

LiveATC Mobile
(Mobile browser)

ATC Audio Archives
Interesting Recordings

LiveATC Forums

Home Page
About LiveATC.net
Make a Donation
Terms of Use
Privacy Policy

Canadian Air Freqs

AIRMETs/SIGMETs

FAA Airport Status
Nat'l Airspace Status
Arrival Demand Charts


Server Software By:
Icecast.org
Liquidsoap


Current Potentially Bad Weather Airports
(updated every 30 minutes - sorted alphabetically by ICAO code)



This page lists LiveATC.net airport areas that may be interesting to listen to because of challenging flying (weather) conditions. Challenging weather conditions include low ceilings, limited visibility, high or gusty winds, or thunderstorms.

Updated: Mon Aug 3 14:10:01 UTC 2020
Click on airport name to go to that airport area's feeds.

CYQI Moncton Center Low/High Yarmouth Airport (Yarmouth, CA-NS)
WX MAP UNAVAILABLENearest METAR:
CYQI 031354Z 20014G21KT 3/8SM FG VV002 20/20 A2996 RMK FG8 SLP147 DENSITY ALT 700FT
CYYB Toronto Center North Bay Airport (North Bay, CA-ON)
WX MAP UNAVAILABLENearest METAR:
CYYB 031300Z 36005KT 30SM OVC005 12/11 A3000 RMK SC8 SLP165
EHLE Tower Lelystad Airport (Lelystad, Netherlands)
WX MAP UNAVAILABLENearest METAR:
EHLE 031355Z AUTO 28017KT 220V310 9999 -TSRA FEW016CB BKN024 BKN031 OVC039 16/12 Q1013 TEMPO 34012KT 5000 SHRA
KACK Tower Nantucket Memorial Airport (Nantucket, US-MA)
kackNearest METAR:
KACK 031353Z 21014KT 6SM HZ OVC006 26/23 A3001 RMK AO2 SLP161 T02610233 PNO
KARR Tower Aurora Municipal Airport (Chicago/Aurora, US-IL)
karrNearest METAR:
KARR 031352Z 35006KT 10SM OVC008 17/16 A3004 RMK AO2 CIG 007V011 SLP170 T01720156
KAVL Gnd/Twr/App Asheville Regional Airport (Asheville, US-NC)
kavlNearest METAR:
KAVL 031354Z 00000KT 10SM BKN007 OVC012 22/21 A3012 RMK AO2 LTG DSNT N AND W CIG 005V010 SLP172 T02220206
KBMI Gnd/Twr/App/Dep Central Illinois Regional Airport at Bloomington-Normal (Bloomington/Normal, US-IL)
kbmiNearest METAR:
KBMI 031356Z 01009KT 10SM OVC006 18/17 A3004 RMK AO2 SLP165 T01830172
KCMA Gnd/Twr/App Camarillo Airport (Camarillo, US-CA)
kcmaNearest METAR:
KCMA 031355Z AUTO 33003KT 2 1/2SM BR OVC003 15/13 A2994 RMK AO2 SLP147 T01500133 $
KCOS Gnd/Twr/App/Dep City of Colorado Springs Municipal Airport (Colorado Springs, US-CO)
kcosNearest METAR:
KCOS 031354Z 11008KT 7SM OVC009 16/13 A3028 RMK AO2 CIG 007V013 SLP178 T01610128 $
KCOU CTAF/Gnd/App Columbia Regional Airport (Columbia, US-MO)
kcouNearest METAR:
KCOU 031354Z 35008KT 10SM OVC008 19/17 A3006 RMK AO2 RAE1259 SLP173 P0000 T01940172
KCRQ Tower Mc Clellan-Palomar Airport (Carlsbad, US-CA)
kcrqNearest METAR:
KCRQ 031353Z AUTO 09005KT 1 3/4SM R24/2800VP6000FT BR OVC003 18/17 A2993 RMK AO2 VIS 3/4V3 SLP132 T01830167
KCYS Gnd/Twr/App/Center Cheyenne Regional Airport/Jerry Olson Field (Cheyenne, US-WY)
kcysNearest METAR:
KCYS 031353Z 14007KT 1/4SM FG VV002 13/12 A3024 RMK AO2 TWR VIS 1/4 SLP165 T01280117 RVRNO
KDPA Del/Gnd/Twr/Misc Dupage Airport (Chicago, US-IL)
kdpaNearest METAR:
KDPA 031352Z 36007KT 10SM OVC008 17/15 A3003 RMK AO2 SLP166 T01720150
KFLL Ground/Tower Fort Lauderdale/Hollywood International Airport (Fort Lauderdale, US-FL)
kfllNearest METAR:
KFLL 031353Z 19010KT 10SM SCT014 BKN070 BKN250 30/27 A2993 RMK AO2 LTG DSNT W SLP135 CB DSNT E T03000267
KFLO App/Dep Florence Regional Airport (Florence, US-SC)
kfloNearest METAR:
KFLO 031353Z 11004KT 10SM SCT100 27/24 A3002 RMK AO2 LTG DSNT NW RAE04 SLP163 P0000 T02670244
KGXY CTAF Greeley-Weld County Airport (Greeley, US-CO)
kgxyNearest METAR:
KGXY 031356Z AUTO 08004KT 10SM OVC004 16/14 A3018 RMK AO2 SLP186 T01560139
KHKY Del/Gnd/Twr/ZTL Hickory Regional Airport (Hickory, US-NC)
khkyNearest METAR:
KHKY 031353Z VRB04KT 10SM SCT028 BKN036 OVC065 23/21 A3009 RMK AO2 LTG DSNT W-N SLP166 T02330206
KHUL/KPQI/ZBW01/15 Houlton International Airport (Houlton, US-ME)
khulNearest METAR:
KHUL 031353Z AUTO 18007KT 10SM OVC005 22/21 A2979 RMK AO2 SLP086 T02220206
KHWO ATIS North Perry Airport (Hollywood, US-FL)
khwoNearest METAR:
KHWO 031353Z 18009KT 10SM SCT015 30/27 A2995 RMK AO2 LTG DSNT W AND NW SLP142 T03000272
KJNX CTAF Johnston Regional Airport (Smithfield, US-NC)
kjnxNearest METAR:
KJNX 031355Z AUTO 16004KT 10SM TS BKN016 BKN021 BKN035 28/26 A3005 RMK AO2 LTG DSNT E THRU W
KMDW Tower #1 Chicago Midway International Airport (Chicago, US-IL)
kmdwNearest METAR:
KMDW 031353Z 35011KT 10SM OVC009 19/16 A3002 RMK AO2 SLP159 T01890156
KMIA Departure (North) Miami International Airport (Miami, US-FL)
kmiaNearest METAR:
KMIA 031353Z 20006KT 10SM SCT013 BKN020 BKN250 29/27 A2994 RMK AO2 LTG DSNT NW SLP139 T02940267 $
KMYF Del/Gnd/Twr Montgomery Field Airport (San Diego, US-CA)
kmyfNearest METAR:
KMYF 031353Z AUTO 05004KT 4SM BR OVC004 19/17 A2995 RMK AO2 SLP137 T01940172
KNKX Del/Gnd/Twr Miramar Marine Corps Air Station (San Diego, US-CA)
knkxNearest METAR:
KNKX 031355Z 06003KT 4SM BR OVC002 20/18 A2995 RMK SLP135 T02000183
KOAJ Gnd/Twr Albert J Ellis Airport (Jacksonville, US-NC)
koajNearest METAR:
KOAJ 031356Z 30003KT 10SM -RA SCT020 BKN038 OVC055 23/22 A3009 RMK AO2 LTG DSNT N TSE24 SLP189 P0001 T02330222
KPIA Approach/Departure General Downing - Peoria International Airport (Peoria, US-IL)
kpiaNearest METAR:
KPIA 031354Z 04007KT 10SM OVC006 18/16 A3004 RMK AO2 CIG 005V009 SLP171 T01830156
KPMP Tower Pompano Beach Airpark (Pompano Beach, US-FL)
kpmpNearest METAR:
KPMP 031353Z 16004KT 10SM FEW018 SCT024 BKN070 BKN140 28/26 A2994 RMK AO2 LTG DSNT W SLP138 T02780261
KPWK Del/Gnd/Tower Chicago Executive Airport (Chicago/Prospect Heights/Wheeling, US-IL)
kpwkNearest METAR:
KPWK 031352Z 35007KT 10SM OVC009 18/16 A3004 RMK AO2 SLP169 T01830156
KROG/KXNA/KVBT/Misc Rogers Executive Airport - Carter Field (Rogers, US-AR)
kvbtNearest METAR:
KVBT 031356Z AUTO 36006KT 10SM OVC002 19/18 A3010 RMK AO2 SLP184 T01890183 TSNO
KROG/KXNA/KVBT/Misc Rogers Executive Airport - Carter Field (Rogers, US-AR)
krogNearest METAR:
KROG 031358Z 35006KT 9SM OVC003 18/17 A3009 RMK AO2 SLP177 T01830172
KSAN Ramp/Del/Gnd/Twr San Diego International Airport (San Diego, US-CA)
ksanNearest METAR:
KSAN 031351Z 01003KT 7SM OVC006 19/17 A2995 RMK AO2 SLP142 T01890172
KSBA Tower Santa Barbara Municipal Airport (Santa Barbara, US-CA)
ksbaNearest METAR:
KSBA 031353Z 00000KT 3SM BR OVC004 16/14 A2993 RMK AO2 SLP136 VIS NW-NE 1 T01560139 $
KSDM Ground/Tower Brown Field Municipal Airport (San Diego, US-CA)
ksdmNearest METAR:
KSDM 031353Z AUTO 00000KT M1/4SM FG VV002 17/17 A2995 RMK AO2 SLP138 T01720167
KSGF Ground/Tower Springfield-Branson National Airport (Springfield, US-MO)
ksgfNearest METAR:
KSGF 031352Z 02008KT 10SM OVC004 19/18 A3006 RMK AO2 SLP170 T01890183
KSUS App/Dep Spirit of St. Louis Airport (St. Louis, US-MO)
ksusNearest METAR:
KSUS 031354Z 33006KT 10SM OVC009 22/19 A3001 RMK AO2 SLP154 T02170189
KTMB ATIS Kendall-Tamiami Executive Airport (Miami, US-FL)
ktmbNearest METAR:
KTMB 031353Z 19004KT 10SM -RA FEW019 SCT029 BKN042 A2994 RMK AO2 LTG DSNT NW RAB41 SLP140 P0000
KTRI Gnd/Twr/App Tri-Cities Regional Airport (Bristol/Johnson/Kingsport, US-TN)
ktriNearest METAR:
KTRI 031353Z 00000KT 4SM RA BR FEW020 BKN065 OVC110 20/19 A3009 RMK AO2 LTG DSNT SE-SW TSB06E44 SLP164 P0006 T02000189
KTYS Del/Gnd/Twr/App McGhee Tyson Airport (Knoxville, US-TN)
ktysNearest METAR:
KTYS 031353Z 00000KT 10SM SCT070 SCT120 OVC200 22/18 A3005 RMK AO2 LTG DSNT SW RAE18 TSE07 SLP165 P0000 T02170183
KWDR/KCVC/KCNI CTAF Barrow County Airport (Winder, US-GA)
kcvcNearest METAR:
KCVC 251915Z AUTO 30029G37KT 1 3/4SM TS SCT010 BKN029 OVC048 22/21 A3012 RMK AO2 LTG DSNT ALQS PNO
Lyon FIS Lyon-Bron Airport (Bron, France)
WX MAP UNAVAILABLENearest METAR:
LFLY 031330Z AUTO 36012KT 320V020 9999 SCT052/// BKN062/// BKN076/// ///CB 21/13 Q1013 TEMPO 35015G25KT 4000 TSRA
LFLP Twr/LFLB App Annecy-Meythet Airport (Annecy, France)
WX MAP UNAVAILABLENearest METAR:
LFLP 031330Z AUTO 31003KT 260V360 9999 FEW016/// SCT046/// OVC058/// ///TCU 17/14 Q1014 TEMPO VRB20G35KT 2000 TSRA BKN013 BKN040CB
LFSB Tower EuroAirport Basel-Mulhouse-Freiburg (Basel, Switzerland)
WX MAP UNAVAILABLENearest METAR:
LFSB 031330Z 24004KT 9999 -SHRA FEW011 FEW025CB SCT033 BKN056 17/16 Q1012 RETSRA TEMPO 2000 +TSRA BKN025CB
LJLJ Radar Ljubljana Joze Pucnik Airport (Ljubljana, Slovenia)
WX MAP UNAVAILABLENearest METAR:
LJLJ 031330Z 06004KT 030V100 9999 -TSRA SCT030CB BKN060 BKN120 20/19 Q1007 RETSRA NOSIG
PASC CTAF/Unicom/AFIS/App Deadhorse Airport (Deadhorse, US-AK)
WX MAP UNAVAILABLENearest METAR:
PASC 031353Z 07010KT 6SM -RA BR OVC004 04/03 A2966 RMK AO2 SLP043 P0000 T00440033
SULS Tower Capitan Corbeta C A Curbelo International Airport (Punta del Este, Uruguay)
WX MAP UNAVAILABLENearest METAR:
SULS 031400Z 04006KT 0200 FG OVC002 12/11 Q1026
USTR Gnd/Twr/App Roshchino International Airport (Tyumen, Russia)
WX MAP UNAVAILABLENearest METAR:
USTR 031330Z 18003MPS 9999 FEW///CB 31/13 Q1012 R12/CLRD65 R21/////99 TEMPO -TSRA BKN016CB RMK QFE750/1001